createdAt,value
2023-05-06T00:01:20.759Z,14.82
2023-05-06T00:04:22.108Z,13.90
2023-05-06T00:07:23.543Z,14.25
2023-05-06T00:10:24.983Z,15.63
2023-05-06T00:13:26.294Z,13.65
2023-05-06T00:16:27.730Z,14.93
2023-05-06T00:19:29.077Z,16.92
2023-05-06T00:22:30.488Z,11.98
2023-05-06T00:25:31.759Z,12.43
2023-05-06T00:28:33.191Z,14.93
2023-05-06T00:31:34.491Z,12.82
2023-05-06T00:34:35.798Z,11.82
2023-05-06T00:37:37.118Z,13.98
2023-05-06T00:40:38.812Z,12.90
2023-05-06T00:43:40.911Z,11.70
2023-05-06T00:46:42.808Z,12.20
2023-05-06T00:49:44.596Z,11.40
2023-05-06T00:52:46.547Z,12.38
2023-05-06T00:55:49.245Z,13.27
2023-05-06T00:58:50.564Z,11.15
2023-05-06T01:01:53.906Z,10.85
2023-05-06T01:04:56.096Z,12.48
2023-05-06T01:08:04.225Z,12.90
2023-05-06T01:11:07.989Z,11.40
2023-05-06T01:14:29.572Z,11.05
2023-05-06T01:17:31.730Z,12.27
2023-05-06T01:20:33.709Z,12.88
2023-05-06T01:23:51.569Z,11.73
2023-05-06T01:26:52.810Z,12.77
2023-05-06T01:29:54.594Z,12.32
2023-05-06T01:33:10.613Z,12.32
2023-05-06T01:36:31.840Z,13.65
2023-05-06T01:39:33.393Z,11.23
2023-05-06T01:42:35.233Z,13.38
2023-05-06T01:45:37.425Z,11.40
2023-05-06T01:48:39.399Z,15.65
2023-05-06T01:51:40.931Z,15.70
2023-05-06T01:54:42.226Z,12.32
2023-05-06T01:57:43.566Z,13.00
2023-05-06T02:00:44.885Z,13.90
2023-05-06T02:03:46.649Z,13.18
2023-05-06T02:06:48.087Z,11.05
2023-05-06T02:09:49.518Z,12.55
2023-05-06T02:12:51.119Z,11.43
2023-05-06T02:15:53.956Z,14.43
2023-05-06T02:18:55.534Z,11.80
2023-05-06T02:21:57.549Z,12.25
2023-05-06T02:24:58.875Z,11.38
2023-05-06T02:28:00.228Z,12.07
2023-05-06T02:31:01.497Z,12.88
2023-05-06T02:34:02.989Z,10.63
2023-05-06T02:37:04.291Z,12.95
2023-05-06T02:40:06.617Z,12.88
2023-05-06T02:43:08.035Z,11.55
2023-05-06T02:46:09.411Z,12.02
2023-05-06T02:49:10.764Z,12.82
2023-05-06T02:52:12.124Z,12.68
2023-05-06T02:55:13.388Z,11.13
2023-05-06T02:58:14.643Z,12.05
2023-05-06T03:01:15.938Z,11.00
2023-05-06T03:04:17.487Z,11.80
2023-05-06T03:07:19.972Z,12.70
2023-05-06T03:10:21.315Z,14.45
2023-05-06T03:13:22.698Z,13.10
2023-05-06T03:16:24.302Z,12.30
2023-05-06T03:19:25.728Z,13.73
2023-05-06T03:22:27.107Z,11.43
2023-05-06T03:25:28.473Z,14.27
2023-05-06T03:28:29.715Z,12.65
2023-05-06T03:31:31.002Z,13.27
2023-05-06T03:34:32.401Z,13.25
2023-05-06T03:37:33.853Z,12.88
2023-05-06T03:40:35.322Z,13.50
2023-05-06T03:43:37.310Z,13.80
2023-05-06T03:46:40.093Z,13.80
2023-05-06T03:49:41.592Z,13.43
2023-05-06T03:52:42.965Z,13.15
2023-05-06T03:55:44.220Z,12.88
2023-05-06T03:58:45.884Z,11.88
2023-05-06T04:01:47.200Z,13.20
2023-05-06T04:04:48.500Z,13.43
2023-05-06T04:07:49.748Z,12.52
2023-05-06T04:10:51.059Z,14.30
2023-05-06T04:13:52.434Z,11.15
2023-05-06T04:16:53.948Z,11.35
2023-05-06T04:19:55.801Z,12.52
2023-05-06T04:22:57.036Z,11.50
2023-05-06T04:25:59.273Z,10.43
2023-05-06T04:29:00.898Z,13.07
2023-05-06T04:32:02.938Z,14.18
2023-05-06T04:35:04.496Z,12.38
2023-05-06T04:38:06.132Z,14.18
2023-05-06T04:41:08.040Z,14.55
2023-05-06T04:44:09.300Z,22.77
2023-05-06T04:47:11.044Z,30.15
2023-05-06T04:50:13.011Z,14.82
2023-05-06T04:53:14.642Z,28.63
2023-05-06T04:56:16.038Z,48.92
2023-05-06T04:59:17.364Z,74.40
2023-05-06T05:02:18.639Z,25.38
2023-05-06T05:05:20.053Z,48.58
2023-05-06T05:08:21.342Z,33.33
2023-05-06T05:11:22.643Z,50.80
2023-05-06T05:14:23.924Z,25.17
2023-05-06T05:17:25.239Z,13.23
2023-05-06T05:20:26.657Z,13.05
2023-05-06T05:23:27.949Z,12.05
2023-05-06T05:26:29.179Z,14.32
2023-05-06T05:29:30.830Z,12.32
2023-05-06T05:32:32.138Z,14.30
2023-05-06T05:35:33.520Z,12.13
2023-05-06T05:38:35.333Z,12.82
2023-05-06T05:41:36.613Z,13.57
2023-05-06T05:44:37.901Z,12.75
2023-05-06T05:47:39.819Z,13.75
2023-05-06T05:50:41.290Z,12.80
2023-05-06T05:53:42.612Z,11.82
2023-05-06T05:56:43.862Z,14.20
2023-05-06T05:59:45.315Z,9.20
2023-05-06T06:02:46.766Z,11.88
2023-05-06T06:05:49.329Z,8.88
2023-05-06T06:08:50.988Z,10.27
2023-05-06T06:11:52.436Z,9.77
2023-05-06T06:14:53.720Z,9.95
2023-05-06T06:17:55.153Z,10.05
2023-05-06T06:20:56.467Z,9.80
2023-05-06T06:23:57.797Z,8.98
2023-05-06T06:26:59.137Z,9.75
2023-05-06T06:30:00.543Z,6.70
2023-05-06T06:33:01.883Z,6.53
2023-05-06T06:36:03.385Z,6.80
2023-05-06T06:39:05.050Z,5.90
2023-05-06T06:42:07.008Z,6.68
2023-05-06T06:45:09.350Z,6.07
2023-05-06T06:48:11.331Z,6.45
2023-05-06T06:51:12.699Z,7.40
2023-05-06T06:54:13.967Z,6.47
2023-05-06T06:57:15.258Z,8.07
2023-05-06T07:00:16.768Z,8.00
2023-05-06T07:03:19.452Z,7.60
2023-05-06T07:06:21.116Z,6.40
2023-05-06T07:09:22.534Z,6.30
2023-05-06T07:12:24.564Z,9.52
2023-05-06T07:15:26.089Z,8.95
2023-05-06T07:18:27.364Z,5.22
2023-05-06T07:21:28.748Z,5.07
2023-05-06T07:24:30.004Z,7.38
2023-05-06T07:27:31.482Z,6.20
2023-05-06T07:30:32.892Z,5.97
2023-05-06T07:33:34.503Z,5.68
2023-05-06T07:36:40.496Z,6.13
2023-05-06T07:39:43.111Z,6.85
2023-05-06T07:42:44.408Z,5.75
2023-05-06T07:45:45.746Z,5.93
2023-05-06T07:48:46.998Z,6.63
2023-05-06T07:51:48.324Z,6.55
2023-05-06T07:54:50.142Z,6.35
2023-05-06T07:57:51.841Z,5.93
2023-05-06T08:00:53.169Z,6.00
2023-05-06T08:03:54.868Z,6.38
2023-05-06T08:06:57.278Z,5.50
2023-05-06T08:09:58.611Z,5.45
2023-05-06T08:12:59.946Z,7.05
2023-05-06T08:16:02.302Z,5.55
2023-05-06T08:19:03.787Z,5.22
2023-05-06T08:22:05.091Z,5.93
2023-05-06T08:25:06.664Z,5.25
2023-05-06T08:28:08.078Z,7.22
2023-05-06T08:31:09.530Z,5.63
2023-05-06T08:34:10.860Z,5.25
2023-05-06T08:37:12.356Z,4.68
2023-05-06T08:40:20.903Z,4.57
2023-05-06T08:43:23.543Z,6.13
2023-05-06T08:46:25.125Z,4.35
2023-05-06T08:49:26.728Z,4.82
2023-05-06T08:52:28.546Z,5.07
2023-05-06T08:55:30.678Z,4.75
2023-05-06T08:58:34.961Z,4.93
2023-05-06T09:01:37.856Z,4.93
2023-05-06T09:04:40.171Z,4.22
2023-05-06T09:07:41.449Z,4.07
2023-05-06T09:10:43.972Z,3.50
2023-05-06T09:13:45.214Z,3.28
2023-05-06T09:16:47.847Z,2.20
2023-05-06T09:19:58.629Z,2.97
2023-05-06T09:23:01.441Z,1.98
2023-05-06T09:26:02.771Z,2.35
2023-05-06T09:29:04.742Z,2.97
2023-05-06T09:32:08.474Z,5.05
2023-05-06T09:35:11.216Z,4.05
2023-05-06T09:38:12.723Z,4.07
2023-05-06T09:41:14.342Z,3.03
2023-05-06T09:44:15.832Z,3.92
2023-05-06T09:47:17.172Z,2.65
2023-05-06T09:50:20.168Z,3.05
2023-05-06T09:53:22.108Z,4.50
2023-05-06T09:56:23.768Z,5.55
2023-05-06T09:59:27.478Z,3.75
2023-05-06T10:02:29.126Z,4.05
2023-05-06T10:05:32.003Z,2.97
2023-05-06T10:08:35.065Z,4.30
2023-05-06T10:11:36.756Z,4.07
2023-05-06T10:14:38.359Z,4.25
2023-05-06T10:17:40.540Z,3.65
2023-05-06T10:20:42.100Z,3.05
2023-05-06T10:23:49.378Z,3.33
2023-05-06T10:26:54.301Z,2.95
2023-05-06T10:29:58.094Z,3.58
2023-05-06T10:33:03.310Z,3.70
2023-05-06T10:36:13.519Z,3.17
2023-05-06T10:39:14.986Z,3.53
2023-05-06T10:42:16.824Z,4.15
2023-05-06T10:45:18.112Z,3.45
2023-05-06T10:48:19.378Z,4.57
2023-05-06T10:51:22.678Z,3.65
2023-05-06T10:54:25.831Z,5.22
2023-05-06T10:57:39.957Z,4.60
2023-05-06T11:00:41.445Z,5.57
2023-05-06T11:03:43.606Z,4.03
2023-05-06T11:06:46.712Z,4.65
2023-05-06T11:09:55.810Z,3.63
2023-05-06T11:12:57.254Z,3.22
2023-05-06T11:15:58.710Z,4.72
2023-05-06T11:18:59.992Z,3.95
2023-05-06T11:22:02.232Z,4.55
2023-05-06T11:25:06.062Z,3.90
2023-05-06T11:28:08.408Z,4.50
2023-05-06T11:31:10.026Z,5.10
2023-05-06T11:34:13.015Z,3.20
2023-05-06T11:37:23.759Z,4.00
2023-05-06T11:40:28.665Z,4.03
2023-05-06T11:43:29.945Z,3.42
2023-05-06T11:46:33.180Z,3.80
2023-05-06T11:49:38.624Z,4.45
2023-05-06T11:52:40.295Z,11.80
2023-05-06T11:55:41.842Z,4.20
2023-05-06T11:58:43.217Z,3.58
2023-05-06T12:01:45.263Z,4.40
2023-05-06T12:04:48.107Z,5.05
2023-05-06T12:07:49.494Z,4.68
2023-05-06T12:10:51.516Z,3.80
2023-05-06T12:13:54.023Z,4.28
2023-05-06T12:16:56.149Z,5.70
2023-05-06T12:19:59.081Z,4.82
2023-05-06T12:23:11.002Z,4.95
2023-05-06T12:26:12.620Z,4.25
2023-05-06T12:29:16.738Z,4.07
2023-05-06T12:32:18.028Z,4.50
2023-05-06T12:35:29.111Z,5.93
2023-05-06T12:38:32.239Z,3.83
2023-05-06T12:44:38.585Z,3.42
2023-05-06T12:47:39.856Z,4.25
2023-05-06T12:50:42.493Z,5.05
2023-05-06T12:53:44.068Z,3.88
2023-05-06T12:56:45.934Z,3.75
2023-05-06T12:59:47.315Z,3.65
2023-05-06T13:02:48.641Z,3.20
2023-05-06T13:05:51.762Z,5.22
2023-05-06T13:08:54.001Z,4.25
2023-05-06T13:11:55.564Z,3.65
2023-05-06T13:14:56.951Z,3.35
2023-05-06T13:17:58.276Z,2.67
2023-05-06T13:21:00.283Z,3.55
2023-05-06T13:24:02.072Z,2.60
2023-05-06T13:27:03.348Z,3.20
2023-05-06T13:30:05.184Z,3.40
2023-05-06T13:33:06.685Z,3.83
2023-05-06T13:36:08.322Z,3.40
2023-05-06T13:39:09.715Z,3.22
2023-05-06T13:42:11.103Z,2.85
2023-05-06T13:45:12.450Z,2.75
2023-05-06T13:48:14.077Z,2.92
2023-05-06T13:51:15.611Z,2.40
2023-05-06T13:54:16.934Z,2.90
2023-05-06T13:57:18.845Z,6.40
2023-05-06T14:00:21.170Z,3.65
2023-05-06T14:03:22.475Z,5.18
2023-05-06T14:06:23.816Z,4.20
2023-05-06T14:09:25.392Z,2.72
2023-05-06T14:12:26.700Z,3.33
2023-05-06T14:15:27.984Z,3.03
2023-05-06T14:18:29.467Z,3.10
2023-05-06T14:21:30.770Z,3.22
2023-05-06T14:24:32.007Z,3.08
2023-05-06T14:27:33.585Z,2.75
2023-05-06T14:30:35.615Z,3.33
2023-05-06T14:33:37.990Z,2.90
2023-05-06T14:36:39.417Z,3.97
2023-05-06T14:39:40.973Z,2.65
2023-05-06T14:42:42.210Z,3.10
2023-05-06T14:45:43.545Z,2.58
2023-05-06T14:48:45.584Z,2.22
2023-05-06T14:51:49.714Z,2.90
2023-05-06T14:54:51.002Z,2.60
2023-05-06T14:57:52.297Z,2.30
2023-05-06T15:00:53.679Z,3.22
2023-05-06T15:03:54.971Z,2.80
2023-05-06T15:06:59.220Z,2.47
2023-05-06T15:10:00.696Z,2.97
2023-05-06T15:13:02.146Z,2.92
2023-05-06T15:16:03.641Z,3.92
2023-05-06T15:19:04.975Z,3.88
2023-05-06T15:22:09.523Z,3.08
2023-05-06T15:25:16.664Z,2.47
2023-05-06T15:28:24.812Z,2.85
2023-05-06T15:31:27.172Z,2.80
2023-05-06T15:34:31.876Z,2.70
2023-05-06T15:37:33.813Z,3.25
2023-05-06T15:40:35.486Z,1.80
2023-05-06T15:43:43.331Z,2.70
2023-05-06T15:46:44.684Z,1.92
2023-05-06T15:49:52.929Z,3.33
2023-05-06T15:52:56.226Z,2.05
2023-05-06T15:56:12.924Z,2.13
2023-05-06T15:59:18.961Z,3.17
2023-05-06T16:02:27.195Z,3.72
2023-05-06T16:05:28.875Z,3.65
2023-05-06T16:08:33.826Z,2.63
2023-05-06T16:11:40.991Z,2.85
2023-05-06T16:14:44.040Z,3.05
2023-05-06T16:17:50.935Z,2.80
2023-05-06T16:20:54.116Z,2.78
2023-05-06T16:23:57.001Z,2.90
2023-05-06T16:26:58.412Z,3.08
2023-05-06T16:29:59.712Z,3.58
2023-05-06T16:33:01.137Z,2.72
2023-05-06T16:36:03.212Z,3.90
2023-05-06T16:39:06.190Z,2.70
2023-05-06T16:42:07.703Z,2.92
2023-05-06T16:45:09.144Z,3.38
2023-05-06T16:48:10.783Z,3.22
2023-05-06T16:51:14.242Z,2.35
2023-05-06T16:54:15.555Z,3.40
2023-05-06T16:57:17.141Z,3.13
2023-05-06T17:00:18.622Z,3.55
2023-05-06T17:03:19.995Z,3.40
2023-05-06T17:06:24.018Z,4.35
2023-05-06T17:09:25.364Z,3.20
2023-05-06T17:12:26.985Z,3.50
2023-05-06T17:15:28.443Z,3.95
2023-05-06T17:18:29.920Z,5.60
2023-05-06T17:21:31.890Z,2.58
2023-05-06T17:24:34.760Z,4.60
2023-05-06T17:27:36.049Z,3.90
2023-05-06T17:30:37.391Z,3.50
2023-05-06T17:33:39.201Z,2.72
2023-05-06T17:36:40.676Z,3.70
2023-05-06T17:39:41.972Z,6.50
2023-05-06T17:42:43.285Z,3.22
2023-05-06T17:45:44.555Z,3.10
2023-05-06T17:48:45.828Z,2.90
2023-05-06T17:51:47.576Z,3.10
2023-05-06T17:54:57.121Z,2.92
2023-05-06T17:58:07.365Z,3.05
2023-05-06T18:01:09.179Z,2.92
2023-05-06T18:04:11.309Z,2.60
2023-05-06T18:07:12.835Z,2.70
2023-05-06T18:10:14.167Z,2.75
2023-05-06T18:13:15.598Z,2.88
2023-05-06T18:16:16.950Z,2.50
2023-05-06T18:19:18.313Z,3.22
2023-05-06T18:22:19.618Z,2.60
2023-05-06T18:25:21.115Z,3.47
2023-05-06T18:28:22.385Z,3.10
2023-05-06T18:31:24.589Z,3.92
2023-05-06T18:34:25.897Z,4.30
2023-05-06T18:37:30.388Z,3.13
2023-05-06T18:40:32.201Z,3.70
2023-05-06T18:43:33.683Z,3.22
2023-05-06T18:46:35.059Z,3.17
2023-05-06T18:49:36.467Z,2.72
2023-05-06T18:52:37.799Z,4.05
2023-05-06T18:55:39.089Z,3.63
2023-05-06T18:58:40.589Z,3.80
2023-05-06T19:01:41.909Z,4.60
2023-05-06T19:04:43.446Z,4.70
2023-05-06T19:07:44.717Z,5.05
2023-05-06T19:10:46.101Z,3.30
2023-05-06T19:13:47.472Z,3.85
2023-05-06T19:16:49.040Z,6.35
2023-05-06T19:19:50.834Z,7.65
2023-05-06T19:22:52.224Z,7.43
2023-05-06T19:25:53.495Z,7.80
2023-05-06T19:28:54.869Z,7.55
2023-05-06T19:31:56.137Z,7.07
2023-05-06T19:34:57.428Z,6.80
2023-05-06T19:37:58.902Z,4.75
2023-05-06T19:41:00.258Z,4.47
2023-05-06T19:44:01.568Z,4.90
2023-05-06T19:47:03.004Z,3.63
2023-05-06T19:50:05.957Z,3.17
2023-05-06T19:53:07.557Z,6.20
2023-05-06T19:56:10.113Z,4.03
2023-05-06T19:59:11.392Z,4.38
2023-05-06T20:02:16.585Z,3.40
2023-05-06T20:05:18.077Z,3.92
2023-05-06T20:08:19.437Z,3.60
2023-05-06T20:11:21.162Z,3.75
2023-05-06T20:14:22.847Z,3.55
2023-05-06T20:17:24.891Z,4.68
2023-05-06T20:20:34.038Z,4.50
2023-05-06T20:23:35.424Z,3.05
2023-05-06T20:26:36.705Z,5.00
2023-05-06T20:29:38.123Z,4.82
2023-05-06T20:32:40.183Z,5.10
2023-05-06T20:35:42.591Z,5.25
2023-05-06T20:38:44.023Z,5.80
2023-05-06T20:41:45.320Z,6.05
2023-05-06T20:44:47.070Z,5.28
2023-05-06T20:47:48.435Z,4.70
2023-05-06T20:50:52.665Z,3.65
2023-05-06T20:53:58.353Z,3.33
2023-05-06T20:57:02.745Z,3.53
2023-05-06T21:00:04.490Z,11.38
2023-05-06T21:03:06.140Z,10.60
2023-05-06T21:06:07.735Z,7.93
2023-05-06T21:09:09.017Z,5.55
2023-05-06T21:12:10.324Z,5.32
2023-05-06T21:15:12.177Z,4.47
2023-05-06T21:18:13.793Z,5.15
2023-05-06T21:21:15.100Z,3.42
2023-05-06T21:24:16.457Z,3.55
2023-05-06T21:27:17.858Z,4.35
2023-05-06T21:30:19.542Z,4.50
2023-05-06T21:33:21.223Z,3.40
2023-05-06T21:36:22.666Z,4.00
2023-05-06T21:39:23.969Z,4.13
2023-05-06T21:42:27.773Z,6.05
2023-05-06T21:45:29.210Z,5.78
2023-05-06T21:48:31.377Z,5.40
2023-05-06T21:51:36.573Z,4.82
2023-05-06T21:54:37.935Z,5.50
2023-05-06T21:57:40.589Z,4.93
2023-05-06T22:00:42.097Z,6.00
2023-05-06T22:03:44.147Z,4.38
2023-05-06T22:06:45.649Z,3.60
2023-05-06T22:09:46.928Z,3.40
2023-05-06T22:12:48.276Z,4.22
2023-05-06T22:15:49.635Z,4.47
2023-05-06T22:18:51.873Z,4.47
2023-05-06T22:21:53.599Z,3.28
2023-05-06T22:24:54.884Z,3.75
2023-05-06T22:27:56.601Z,4.53
2023-05-06T22:30:57.844Z,4.45
2023-05-06T22:34:03.584Z,5.07
2023-05-06T22:37:09.157Z,3.83
2023-05-06T22:40:10.915Z,4.05
2023-05-06T22:43:12.209Z,5.10
2023-05-06T22:46:13.646Z,2.90
2023-05-06T22:49:15.925Z,4.22
2023-05-06T22:52:18.931Z,3.75
2023-05-06T22:55:20.475Z,3.67
2023-05-06T22:58:21.792Z,3.13
2023-05-06T23:01:25.115Z,2.97
2023-05-06T23:04:26.718Z,4.00
2023-05-06T23:07:28.093Z,4.03
2023-05-06T23:10:29.433Z,4.10
2023-05-06T23:13:35.840Z,3.97
2023-05-06T23:16:37.206Z,3.42
2023-05-06T23:19:38.529Z,3.38
2023-05-06T23:22:39.825Z,3.97
2023-05-06T23:25:41.119Z,3.80
2023-05-06T23:28:42.393Z,4.63
2023-05-06T23:31:43.687Z,3.78
2023-05-06T23:34:44.979Z,4.05
2023-05-06T23:37:46.262Z,3.35
2023-05-06T23:40:47.560Z,3.83
2023-05-06T23:43:48.847Z,4.18
2023-05-06T23:46:50.427Z,3.17
2023-05-06T23:49:52.254Z,4.22
2023-05-06T23:52:53.556Z,3.90
2023-05-06T23:55:55.350Z,4.28
2023-05-06T23:58:56.598Z,6.18
